• Join FlightAware (Why Join?)
  • Login
  • US Flag 
08:32AM EDT


 

Airport Tracker/Info


-or-


 

Live Flight TrackerFlight Track Log ✈ CPT7773 ✈ 07-May-2013 ✈ KCOD - KCPR

Flight Track Log - Related Links

Times and Time Zones

All times are in EDT time to prevent confusion due to time zone crossing. See the CPT7773 flight status page for this flight to view local times or setup timezone preferences in your user account.

Time Position Orientation Groundspeed Altitude Reporting Facility
EDT Latitude Longitude Course Direction KTS MPH feet Rate Location/Type
07:53PM 44.5247 -108.9578 112° Southeast 126 145 6,800  Level Salt Lake Center
07:54PM 44.5094 -108.9050 112° Southeast 131 151 7,800 780 Climbing Salt Lake Center
07:55PM 44.5008 -108.8578 104° East 130 150 8,400 480 Climbing Salt Lake Center
07:56PM 44.4836 -108.8008 113° Southeast 136 157 8,900 600 Climbing Salt Lake Center
07:58PM 44.4733 -108.7514 106° East 139 160 9,700 540 Climbing Salt Lake Center
07:59PM 44.4569 -108.7064 117° Southeast 138 159 10,100 480 Climbing Salt Lake Center
08:00PM 44.4250 -108.6597 134° Southeast 145 167 10,800 420 Climbing Salt Lake Center
08:01PM 44.3975 -108.6203 134° Southeast 146 168 11,000 60 Climbing Salt Lake Center
08:02PM 44.3639 -108.5678 132° Southeast 154 177 11,000  Level Salt Lake Center
08:03PM 44.3367 -108.5233 131° Southeast 157 181 11,100  Climbing Salt Lake Center
08:04PM 44.3033 -108.4731 133° Southeast 158 182 11,100  Level Salt Lake Center
08:05PM 44.2753 -108.4292 132° Southeast 158 182 11,100  Level Salt Lake Center
08:06PM 44.2475 -108.3858 132° Southeast 158 182 11,100  Level Salt Lake Center
08:07PM 44.2125 -108.3328 133° Southeast 162 186 11,100 -60 Level Salt Lake Center
08:08PM 44.1839 -108.2892 132° Southeast 162 186 11,000  Descending Salt Lake Center
08:09PM 44.1508 -108.2375 132° Southeast 161 185 11,100  Climbing Salt Lake Center
08:10PM 44.1228 -108.1944 132° Southeast 160 184 11,100  Level Salt Lake Center
08:11PM 44.0892 -108.1436 133° Southeast 159 183 11,100  Level Salt Lake Center
08:12PM 44.0594 -108.0997 133° Southeast 161 185 11,100  Level Salt Lake Center
08:13PM 44.0308 -108.0542 131° Southeast 162 186 11,200 -60 Climbing Salt Lake Center
08:14PM 43.9942 -108.0003 133° Southeast 167 192 11,000 -120 Descending Salt Lake Center
08:15PM 43.9633 -107.9550 133° Southeast 169 194 11,000  Level Salt Lake Center
08:16PM 43.9347 -107.8986 125° Southeast 165 190 11,000  Level Salt Lake Center
08:17PM 43.9119 -107.8494 123° Southeast 161 185 11,100  Climbing Salt Lake Center
08:18PM 43.8800 -107.7917 127° Southeast 164 189 11,000 -60 Descending Salt Lake Center
08:19PM 43.8528 -107.7414 127° Southeast 168 193 11,000  Level Salt Lake Center
08:20PM 43.8292 -107.6914 123° Southeast 166 191 11,000  Level Salt Lake Center
08:21PM 43.8011 -107.6358 125° Southeast 162 186 11,000  Level Salt Lake Center
08:22PM 43.7906 -107.5781 104° East 160 184 11,000  Level Salt Lake Center
08:23PM 43.7786 -107.5061 103° East 166 191 11,000  Level Salt Lake Center
08:24PM 43.7678 -107.4464 104° East 168 193 11,000 -60 Level Salt Lake Center
08:25PM 43.7536 -107.3792 106° East 166 191 10,900 -60 Descending Salt Lake Center
08:26PM 43.7400 -107.3244 109° East 164 189 10,900  Level Salt Lake Center
08:27PM 43.7239 -107.2678 111° Southeast 163 188 10,900  Level Salt Lake Center
08:28PM 43.7069 -107.2008 109° East 165 190 10,900  Level Salt Lake Center
08:29PM 43.6933 -107.1475 109° East 161 185 10,900  Level Salt Lake Center
08:30PM 43.6783 -107.0858 109° East 156 180 10,900  Level Salt Lake Center
08:31PM 43.6656 -107.0358 109° East 151 174 10,900  Level Salt Lake Center
08:32PM 43.6469 -106.9872 118° Southeast 150 173 10,900  Level Salt Lake Center
08:33PM 43.6186 -106.9342 126° Southeast 153 176 11,000 60 Climbing Salt Lake Center
08:34PM 43.6114 -106.9175 121° Southeast 154 177 11,000  Level Denver Center
08:35PM 43.5836 -106.8717 130° Southeast 160 184 11,000  Level Denver Center
08:36PM 43.5600 -106.8217 123° Southeast 162 186 11,000  Level Denver Center
08:37PM 43.5317 -106.7667 125° Southeast 160 184 11,000  Level Denver Center
08:38PM 43.5064 -106.7208 127° Southeast 158 182 11,000  Level Denver Center
08:39PM 43.4647 -106.6844 148° Southeast 154 177 11,000 -540 Level Denver Center
08:40PM 43.4244 -106.6583 155° Southeast 159 183 9,900 -720 Descending Denver Center
08:41PM 43.3933 -106.6131 133° Southeast 154 177 9,600 -120 Descending Denver Center
08:42PM 43.3647 -106.5981 159° South 131 151 9,700  Climbing Denver Center
08:43PM 43.3183 -106.5850 168° South 138 159 9,600 -60 Descending Denver Center
08:44PM 43.2764 -106.5714 167° South 151 174 9,600 -300 Level Denver Center
08:45PM 43.2378 -106.5536 161° South 154 177 9,100 -540 Descending Denver Center
08:46PM 43.2000 -106.5083 139° Southeast 160 184 8,500 -420 Descending Denver Center
08:47PM 43.1675 -106.4772 145° Southeast 155 178 8,300 -360 Descending Denver Center
08:48PM 43.1283 -106.4467 150° Southeast 148 170 7,800 -420 Descending Denver Center
08:49PM 43.0919 -106.4300 162° South 144 166 7,500 -300 Descending Denver Center
08:50PM 43.0469 -106.4278 178° South 141 162 7,300 -360 Descending Denver Center
08:51PM 43.0047 -106.4350 187° South 148 170 6,800 -300 Descending Denver Center
08:52PM 42.9608 -106.4475 192° South 157 181 6,800  Level Denver Center
08:53PM 42.9119 -106.4803 206° Southwest 168 193 6,800  Level Denver Center
08:55PM 42.9080 -106.4644 118° Southeast  Level Estimated
09:02PM 42.9080 -106.4644 216° Southwest  Level Estimated
09:03PM 42.9080 -106.4644 216° Southwest  Level Estimated